Hales Corners, WI (53130)

2:56 PM CST on February 01, 2015 (GMT -0600)
Hale Heights | Change Station
CLOSE
Current Station
Personal Weather Station
Location: New Berlin, WI
Elevation: 886 ft
Nearby Weather Stations
Active Advisory: Winter Storm Warning Active Notice: Local Storm Report

Elev 886 ft 42.95 °N, 88.08 °W | Updated 2 seconds ago

Snow
Snow
21.4 °F
Feels Like 12 °F
N
7.6
Wind Variable Wind from NE
Gusts 19.0 mph

Today
High -- | Low -- °F
--% Chance of Precip.
Yesterday
High -- | Low -- °F
Precip. -- in
7:07 AM 5:04 PM
Waxing Gibbous, 96% visible
Pressure 29.90 in
Visibility 0.2 miles
Clouds Few 900 ft
Overcast 1300 ft
Windchill 12 °F
Dew Point 17 °F
Humidity 84%
Rainfall 0.00 in
Snow Depth Not available.
UV 0 out of 12
Pollen .10 out of 12
Air Quality Not available.
Flu Activity Not available.
SPECI KMKE 012048Z 04021G33KT 1/4SM R01L/2400V3000FT SN BLSN FEW009 OVC013 M06/M08 A2990 RMK AO2 PK WND 04033/2043 TWR VIS 3/4 P0000

More Conditions Fewer Conditions

Pressure 29.90 in
Visibility 0.2 miles
Clouds Few 900 ft
Overcast 1300 ft
Windchill 12 °F
Dew Point 17 °F
Humidity 84%
Rainfall 0.00 in
Snow Depth Not available.
UV 0 out of 12
Pollen .10 out of 12
Air Quality Not available.
Flu Activity Not available.
SPECI KMKE 012048Z 04021G33KT 1/4SM R01L/2400V3000FT SN BLSN FEW009 OVC013 M06/M08 A2990 RMK AO2 PK WND 04033/2043 TWR VIS 3/4 P0000

More Conditions Fewer Conditions

10-Day Weather Forecast

Almanac

Astronomy

Feb. 01, 2015 Rise Set
Actual Time
Civil Twilight
Nautical Twilight
Astronomical Twilight
Moon
Length of Visible Light
Length of Day
Tomorrow will be .
, % of the Moon is Illuminated

Today's Extremes

State Highs State Lows

Community

WunderPhotos

Upload Photos

1,792,514 photos uploaded!

WunderBlogs® & News

Nearby

Air Quality

  Air Quality AQ Index Pollutant
Not available.

Snow Depth

Station Depth Elevation

Earthquake Activity

City Distance Mag. Time & Date
Minimum magnitude displayed is 2.5.

Coastal Water Temperatures

Place Temperature

Nearby Weather Stations